createdAt,value
2022-08-19T00:01:59.385Z,9.73
2022-08-19T00:04:30.838Z,9.77
2022-08-19T00:06:57.526Z,9.38
2022-08-19T00:09:25.280Z,8.23
2022-08-19T00:11:53.350Z,8.00
2022-08-19T00:14:21.619Z,9.75
2022-08-19T00:16:49.496Z,7.32
2022-08-19T00:19:16.865Z,9.50
2022-08-19T00:21:44.283Z,8.82
2022-08-19T00:24:13.568Z,8.23
2022-08-19T00:26:41.246Z,8.85
2022-08-19T00:29:10.479Z,10.50
2022-08-19T00:31:37.531Z,10.10
2022-08-19T00:34:05.164Z,9.82
2022-08-19T00:36:33.936Z,10.17
2022-08-19T00:39:00.900Z,8.60
2022-08-19T00:41:28.069Z,12.18
2022-08-19T00:44:28.086Z,11.93
2022-08-19T00:46:59.841Z,10.75
2022-08-19T00:49:52.256Z,10.45
2022-08-19T00:52:33.345Z,12.65
2022-08-19T00:55:01.327Z,11.13
2022-08-19T00:57:34.612Z,11.00
2022-08-19T01:00:03.665Z,9.93
2022-08-19T01:02:33.365Z,12.30
2022-08-19T01:05:03.100Z,13.73
2022-08-19T01:07:35.833Z,16.10
2022-08-19T01:10:07.276Z,17.30
2022-08-19T01:12:34.282Z,11.73
2022-08-19T01:15:00.915Z,14.07
2022-08-19T01:17:28.826Z,14.75
2022-08-19T01:19:55.547Z,14.35
2022-08-19T01:22:31.513Z,12.75
2022-08-19T01:25:00.112Z,14.43
2022-08-19T01:27:26.711Z,15.05
2022-08-19T01:29:56.533Z,18.40
2022-08-19T01:32:33.108Z,15.40
2022-08-19T01:35:03.100Z,16.42
2022-08-19T01:37:31.375Z,13.80
2022-08-19T01:39:58.394Z,16.33
2022-08-19T01:42:30.136Z,14.93
2022-08-19T01:44:57.812Z,19.17
2022-08-19T01:47:24.383Z,15.63
2022-08-19T01:49:50.906Z,19.00
2022-08-19T01:52:17.393Z,17.00
2022-08-19T01:54:44.089Z,16.85
2022-08-19T01:57:15.123Z,17.73
2022-08-19T01:59:45.105Z,17.13
2022-08-19T02:02:11.658Z,20.35
2022-08-19T02:04:39.110Z,17.40
2022-08-19T02:07:06.435Z,18.05
2022-08-19T02:09:33.413Z,20.02
2022-08-19T02:12:00.027Z,17.70
2022-08-19T02:14:26.556Z,19.63
2022-08-19T02:16:53.042Z,17.70
2022-08-19T02:19:19.539Z,17.60
2022-08-19T02:21:46.022Z,19.63
2022-08-19T02:24:13.247Z,17.02
2022-08-19T02:26:40.142Z,19.25
2022-08-19T02:29:06.707Z,18.05
2022-08-19T02:31:34.177Z,19.60
2022-08-19T02:34:01.377Z,19.02
2022-08-19T02:36:28.737Z,20.08
2022-08-19T02:38:56.819Z,18.30
2022-08-19T02:41:27.882Z,16.55
2022-08-19T02:44:28.672Z,18.95
2022-08-19T02:46:42.791Z,19.52
2022-08-19T02:49:09.459Z,19.05
2022-08-19T02:51:39.589Z,16.48
2022-08-19T02:54:07.529Z,16.42
2022-08-19T02:56:36.917Z,16.30
2022-08-19T02:59:08.611Z,16.95
2022-08-19T03:01:36.989Z,18.20
2022-08-19T03:04:05.469Z,17.88
2022-08-19T03:06:32.654Z,16.98
2022-08-19T03:08:59.337Z,16.60
2022-08-19T03:11:28.963Z,18.00
2022-08-19T03:13:55.830Z,19.20
2022-08-19T03:16:25.162Z,19.58
2022-08-19T03:18:52.866Z,21.20
2022-08-19T03:21:26.085Z,42.27
2022-08-19T03:23:58.270Z,38.25
2022-08-19T03:26:24.808Z,42.90
2022-08-19T03:28:58.134Z,45.63
2022-08-19T03:31:41.919Z,44.33
2022-08-19T03:34:21.835Z,41.15
2022-08-19T03:36:49.223Z,46.10
2022-08-19T03:39:16.897Z,45.00
2022-08-19T03:41:48.257Z,43.43
2022-08-19T03:44:19.089Z,42.17
2022-08-19T03:46:48.782Z,43.53
2022-08-19T03:49:18.327Z,36.58
2022-08-19T03:51:46.646Z,38.63
2022-08-19T03:54:15.913Z,40.50
2022-08-19T03:56:44.099Z,35.70
2022-08-19T03:59:14.633Z,33.53
2022-08-19T04:01:41.903Z,29.70
2022-08-19T04:04:09.380Z,30.52
2022-08-19T04:06:39.552Z,29.50
2022-08-19T04:09:09.571Z,27.00
2022-08-19T04:11:44.245Z,30.42
2022-08-19T04:14:14.160Z,30.33
2022-08-19T04:16:41.050Z,29.83
2022-08-19T04:19:08.155Z,28.55
2022-08-19T04:21:35.463Z,26.60
2022-08-19T04:24:03.970Z,31.67
2022-08-19T04:26:35.910Z,28.33
2022-08-19T04:29:12.368Z,35.58
2022-08-19T04:31:40.168Z,36.78
2022-08-19T04:34:08.689Z,39.00
2022-08-19T04:36:38.066Z,37.85
2022-08-19T04:39:07.972Z,36.75
2022-08-19T04:41:53.602Z,35.65
2022-08-19T04:44:20.979Z,32.90
2022-08-19T04:46:51.730Z,34.60
2022-08-19T04:49:23.183Z,32.67
2022-08-19T04:51:51.200Z,28.90
2022-08-19T04:54:25.887Z,33.55
2022-08-19T04:57:07.495Z,27.77
2022-08-19T04:59:36.014Z,31.45
2022-08-19T05:02:02.925Z,28.98
2022-08-19T05:04:32.837Z,32.75
2022-08-19T05:07:01.189Z,30.25
2022-08-19T05:09:33.106Z,30.52
2022-08-19T05:12:16.569Z,35.88
2022-08-19T05:14:43.249Z,45.70
2022-08-19T05:17:27.262Z,33.42
2022-08-19T05:20:13.841Z,28.90
2022-08-19T05:22:40.964Z,33.15
2022-08-19T05:25:13.332Z,35.20
2022-08-19T05:27:41.527Z,30.52
2022-08-19T05:30:09.082Z,37.72
2022-08-19T05:32:35.675Z,33.30
2022-08-19T05:35:02.203Z,39.92
2022-08-19T05:37:29.046Z,40.78
2022-08-19T05:39:56.262Z,37.08
2022-08-19T05:42:24.051Z,41.65
2022-08-19T05:44:52.145Z,42.33
2022-08-19T05:47:20.775Z,39.83
2022-08-19T05:49:48.425Z,40.60
2022-08-19T05:52:19.567Z,41.85
2022-08-19T05:54:53.049Z,47.90
2022-08-19T05:57:20.226Z,43.92
2022-08-19T05:59:56.724Z,41.13
2022-08-19T06:02:25.928Z,39.63
2022-08-19T06:04:52.565Z,41.47
2022-08-19T06:07:20.296Z,50.13
2022-08-19T06:09:58.960Z,40.33
2022-08-19T06:12:31.571Z,41.97
2022-08-19T06:15:01.623Z,35.20
2022-08-19T06:17:31.457Z,39.83
2022-08-19T06:19:59.542Z,41.25
2022-08-19T06:22:26.299Z,38.35
2022-08-19T06:24:54.587Z,36.47
2022-08-19T06:27:21.879Z,45.53
2022-08-19T06:29:48.503Z,49.05
2022-08-19T06:32:17.341Z,58.08
2022-08-19T06:34:44.091Z,46.17
2022-08-19T06:37:12.030Z,41.42
2022-08-19T06:39:40.723Z,49.17
2022-08-19T06:42:11.078Z,39.17
2022-08-19T06:44:42.863Z,43.45
2022-08-19T06:47:23.657Z,40.22
2022-08-19T06:49:54.931Z,39.42
2022-08-19T06:52:27.581Z,46.22
2022-08-19T06:54:56.930Z,46.58
2022-08-19T06:57:27.260Z,43.25
2022-08-19T06:59:54.131Z,45.17
2022-08-19T07:02:21.604Z,35.10
2022-08-19T07:04:52.836Z,39.50
2022-08-19T07:07:21.848Z,35.10
2022-08-19T07:09:57.955Z,36.95
2022-08-19T07:12:35.704Z,37.22
2022-08-19T07:15:06.376Z,33.78
2022-08-19T07:17:34.511Z,36.88
2022-08-19T07:20:05.063Z,38.67
2022-08-19T07:22:32.669Z,52.25
2022-08-19T07:24:59.201Z,44.03
2022-08-19T07:27:25.919Z,39.55
2022-08-19T07:29:56.270Z,36.53
2022-08-19T07:32:28.539Z,36.40
2022-08-19T07:34:56.482Z,39.45
2022-08-19T07:37:28.306Z,41.13
2022-08-19T07:39:57.396Z,41.47
2022-08-19T07:42:23.978Z,38.58
2022-08-19T07:44:51.089Z,40.30
2022-08-19T07:47:49.559Z,50.90
2022-08-19T07:50:07.706Z,35.97
2022-08-19T07:52:36.831Z,37.30
2022-08-19T07:55:05.359Z,37.42
2022-08-19T07:57:32.179Z,37.03
2022-08-19T08:00:04.953Z,33.83
2022-08-19T08:02:31.499Z,34.15
2022-08-19T08:05:16.292Z,33.63
2022-08-19T08:08:01.231Z,32.20
2022-08-19T08:10:27.777Z,34.47
2022-08-19T08:13:08.893Z,24.02
2022-08-19T08:15:42.154Z,28.15
2022-08-19T08:18:11.081Z,21.95
2022-08-19T08:20:46.891Z,27.80
2022-08-19T08:23:30.148Z,25.92
2022-08-19T08:25:58.863Z,23.73
2022-08-19T08:28:29.750Z,15.88
2022-08-19T08:30:58.247Z,13.73
2022-08-19T08:33:34.284Z,14.00
2022-08-19T08:36:12.062Z,15.02
2022-08-19T08:38:40.920Z,14.30
2022-08-19T08:41:29.075Z,12.40
2022-08-19T08:43:58.024Z,13.25
2022-08-19T09:16:41.318Z,9.60
2022-08-19T09:19:09.321Z,14.18
2022-08-19T09:21:35.859Z,13.73
2022-08-19T09:24:03.796Z,16.45
2022-08-19T09:26:51.823Z,16.42
2022-08-19T09:29:17.758Z,16.30
2022-08-19T09:31:44.660Z,15.88
2022-08-19T09:34:21.452Z,19.95
2022-08-19T09:36:54.774Z,19.50
2022-08-19T09:39:21.974Z,17.70
2022-08-19T09:41:50.674Z,15.45
2022-08-19T09:44:18.158Z,18.45
2022-08-19T09:46:47.889Z,16.63
2022-08-19T09:49:14.465Z,12.73
2022-08-19T09:51:41.025Z,10.73
2022-08-19T09:54:07.600Z,9.38
2022-08-19T09:56:38.079Z,13.35
2022-08-19T09:59:05.020Z,10.45
2022-08-19T10:01:33.571Z,12.82
2022-08-19T10:04:06.380Z,16.67
2022-08-19T10:06:45.984Z,10.63
2022-08-19T10:09:13.436Z,17.23
2022-08-19T10:11:54.569Z,12.57
2022-08-19T10:14:24.357Z,13.77
2022-08-19T10:16:51.703Z,11.20
2022-08-19T10:19:25.326Z,12.77
2022-08-19T10:21:53.343Z,15.30
2022-08-19T10:24:21.586Z,14.68
2022-08-19T10:29:32.582Z,12.43
2022-08-19T10:32:09.735Z,11.02
2022-08-19T10:34:38.168Z,8.85
2022-08-19T10:37:15.037Z,11.55
2022-08-19T10:39:48.887Z,11.88
2022-08-19T10:42:17.131Z,12.45
2022-08-19T10:44:43.800Z,9.63
2022-08-19T10:47:17.621Z,10.65
2022-08-19T10:50:12.014Z,13.73
2022-08-19T10:52:48.946Z,11.55
2022-08-19T10:55:37.513Z,11.85
2022-08-19T10:58:04.297Z,8.60
2022-08-19T11:00:32.433Z,7.35
2022-08-19T11:02:59.060Z,9.73
2022-08-19T11:05:25.528Z,8.98
2022-08-19T11:07:52.757Z,8.93
2022-08-19T11:10:21.908Z,10.15
2022-08-19T11:12:49.213Z,11.60
2022-08-19T11:15:15.922Z,10.48
2022-08-19T11:17:44.814Z,11.30
2022-08-19T11:20:15.976Z,7.43
2022-08-19T11:22:43.168Z,4.93
2022-08-19T11:25:11.890Z,7.88
2022-08-19T11:27:44.212Z,7.22
2022-08-19T11:30:13.498Z,6.55
2022-08-19T11:32:44.651Z,11.00
2022-08-19T11:35:20.849Z,6.72
2022-08-19T11:37:47.441Z,6.97
2022-08-19T11:40:13.978Z,7.22
2022-08-19T11:43:09.764Z,8.68
2022-08-19T11:45:36.872Z,9.65
2022-08-19T11:48:04.506Z,12.07
2022-08-19T11:50:30.988Z,15.95
2022-08-19T11:52:57.900Z,10.70
2022-08-19T11:55:24.605Z,8.95
2022-08-19T11:57:51.272Z,13.52
2022-08-19T12:00:17.825Z,12.20
2022-08-19T12:02:44.421Z,13.13
2022-08-19T12:05:12.951Z,9.07
2022-08-19T12:07:41.771Z,10.45
2022-08-19T12:10:09.007Z,9.85
2022-08-19T12:12:35.888Z,8.45
2022-08-19T12:15:03.248Z,10.63
2022-08-19T12:17:31.734Z,11.10
2022-08-19T12:19:58.284Z,10.82
2022-08-19T12:22:24.855Z,9.30
2022-08-19T12:24:53.270Z,10.20
2022-08-19T12:27:35.702Z,9.15
2022-08-19T12:30:08.932Z,12.18
2022-08-19T12:32:35.567Z,7.53
2022-08-19T12:35:02.264Z,12.90
2022-08-19T12:37:28.954Z,11.18
2022-08-19T12:39:55.500Z,9.23
2022-08-19T12:42:22.973Z,7.68
2022-08-19T12:44:49.515Z,8.38
2022-08-19T12:47:16.073Z,6.20
2022-08-19T12:49:55.243Z,9.40
2022-08-19T12:52:24.704Z,9.43
2022-08-19T12:54:54.409Z,12.57
2022-08-19T12:57:32.848Z,11.65
2022-08-19T13:00:16.099Z,13.40
2022-08-19T13:02:45.563Z,9.65
2022-08-19T13:05:18.210Z,8.10
2022-08-19T13:07:44.873Z,14.88
2022-08-19T13:10:13.661Z,13.77
2022-08-19T13:12:42.194Z,9.38
2022-08-19T13:15:10.975Z,8.88
2022-08-19T13:17:39.048Z,14.18
2022-08-19T13:20:08.725Z,14.55
2022-08-19T13:22:36.919Z,12.13
2022-08-19T13:25:06.365Z,9.07
2022-08-19T13:27:33.035Z,16.35
2022-08-19T13:30:18.988Z,13.85
2022-08-19T13:33:03.887Z,11.85
2022-08-19T13:35:30.400Z,10.82
2022-08-19T13:37:56.916Z,12.90
2022-08-19T13:40:27.150Z,12.00
2022-08-19T13:42:56.147Z,10.75
2022-08-19T13:45:25.614Z,10.70
2022-08-19T13:47:59.290Z,13.60
2022-08-19T13:50:30.351Z,8.98
2022-08-19T13:52:57.073Z,11.90
2022-08-19T13:55:25.038Z,20.05
2022-08-19T13:57:57.029Z,10.80
2022-08-19T14:00:27.295Z,10.38
2022-08-19T14:02:56.850Z,10.30
2022-08-19T14:05:25.004Z,11.15
2022-08-19T14:07:51.521Z,7.80
2022-08-19T14:10:19.925Z,15.20
2022-08-19T14:15:14.660Z,11.90
2022-08-19T14:17:43.777Z,16.80
2022-08-19T14:20:17.571Z,10.93
2022-08-19T14:22:46.989Z,9.57
2022-08-19T14:25:19.115Z,9.13
2022-08-19T14:27:45.986Z,14.63
2022-08-19T14:30:15.408Z,7.82
2022-08-19T14:32:44.186Z,10.90
2022-08-19T14:35:13.445Z,12.40
2022-08-19T14:37:45.337Z,8.05
2022-08-19T14:40:16.007Z,10.45
2022-08-19T14:42:43.457Z,8.88
2022-08-19T14:45:12.312Z,10.18
2022-08-19T14:47:39.869Z,7.75
2022-08-19T14:50:10.375Z,12.45
2022-08-19T14:52:37.500Z,11.57
2022-08-19T14:55:05.737Z,15.45
2022-08-19T14:57:34.266Z,9.57
2022-08-19T15:00:00.980Z,10.05
2022-08-19T15:02:34.438Z,11.05
2022-08-19T15:05:02.813Z,8.43
2022-08-19T15:07:30.327Z,8.35
2022-08-19T15:09:58.066Z,7.07
2022-08-19T15:12:25.386Z,7.65
2022-08-19T15:14:53.639Z,9.17
2022-08-19T15:17:25.817Z,10.30
2022-08-19T15:20:11.050Z,9.75
2022-08-19T15:22:38.240Z,7.85
2022-08-19T15:25:06.261Z,8.82
2022-08-19T15:27:33.232Z,10.95
2022-08-19T15:30:01.608Z,8.75
2022-08-19T15:32:31.429Z,8.45
2022-08-19T15:34:57.997Z,6.75
2022-08-19T15:37:25.184Z,9.88
2022-08-19T15:39:51.926Z,10.18
2022-08-19T15:42:30.125Z,6.50
2022-08-19T15:45:00.422Z,11.82
2022-08-19T15:47:34.694Z,6.80
2022-08-19T15:50:11.030Z,7.55
2022-08-19T15:52:49.272Z,6.38
2022-08-19T15:55:32.296Z,5.55
2022-08-19T15:58:29.856Z,8.43
2022-08-19T16:01:20.883Z,12.25
2022-08-19T16:04:14.563Z,7.20
2022-08-19T16:07:03.434Z,12.23
2022-08-19T16:09:32.127Z,6.38
2022-08-19T16:12:02.392Z,5.85
2022-08-19T16:14:31.732Z,6.78
2022-08-19T16:16:58.263Z,7.30
2022-08-19T16:19:25.356Z,6.18
2022-08-19T16:21:54.228Z,9.40
2022-08-19T16:24:25.360Z,6.68
2022-08-19T16:26:51.892Z,6.90
2022-08-19T16:29:33.272Z,7.78
2022-08-19T16:32:02.872Z,9.73
2022-08-19T16:34:29.970Z,5.55
2022-08-19T16:36:56.571Z,7.05
2022-08-19T16:39:23.680Z,6.13
2022-08-19T16:41:51.529Z,5.82
2022-08-19T16:44:19.443Z,8.27
2022-08-19T16:46:47.324Z,6.25
2022-08-19T16:49:53.818Z,8.73
2022-08-19T16:52:12.975Z,8.02
2022-08-19T16:54:41.873Z,5.53
2022-08-19T16:57:12.052Z,7.65
2022-08-19T16:59:43.689Z,9.93
2022-08-19T17:02:18.289Z,7.45
2022-08-19T17:04:58.383Z,11.73
2022-08-19T17:07:33.172Z,8.65
2022-08-19T17:10:01.407Z,8.38
2022-08-19T17:15:18.389Z,14.00
2022-08-19T17:17:45.033Z,10.27
2022-08-19T17:20:11.548Z,10.98
2022-08-19T17:22:38.069Z,11.95
2022-08-19T17:25:04.936Z,13.50
2022-08-19T17:27:32.662Z,16.95
2022-08-19T17:30:00.552Z,9.73
2022-08-19T17:32:27.284Z,11.10
2022-08-19T17:34:56.425Z,16.23
2022-08-19T17:37:23.209Z,10.27
2022-08-19T17:39:49.756Z,11.43
2022-08-19T17:42:16.391Z,10.50
2022-08-19T17:44:42.979Z,10.50
2022-08-19T17:47:13.433Z,9.57
2022-08-19T17:49:40.010Z,11.27
2022-08-19T17:52:09.926Z,9.88
2022-08-19T17:54:41.104Z,10.25
2022-08-19T17:57:08.444Z,9.15
2022-08-19T17:59:37.458Z,13.65
2022-08-19T18:02:06.662Z,9.70
2022-08-19T18:04:33.312Z,11.45
2022-08-19T18:07:04.015Z,11.73
2022-08-19T18:09:42.195Z,13.27
2022-08-19T18:12:13.942Z,12.45
2022-08-19T18:14:41.361Z,12.02
2022-08-19T18:17:13.360Z,9.65
2022-08-19T18:19:43.408Z,10.82
2022-08-19T18:22:13.198Z,10.82
2022-08-19T18:24:41.816Z,13.25
2022-08-19T18:27:08.709Z,11.63
2022-08-19T18:29:38.070Z,15.93
2022-08-19T18:32:05.410Z,11.25
2022-08-19T18:34:31.904Z,10.98
2022-08-19T18:36:58.431Z,14.05
2022-08-19T18:39:44.224Z,12.50
2022-08-19T18:42:34.899Z,9.35
2022-08-19T18:45:20.138Z,22.55
2022-08-19T18:48:05.035Z,10.60
2022-08-19T18:50:32.026Z,15.18
2022-08-19T18:52:58.668Z,13.48
2022-08-19T18:55:26.816Z,17.58
2022-08-19T18:57:53.449Z,8.73
2022-08-19T19:00:20.870Z,14.35
2022-08-19T19:02:47.362Z,15.05
2022-08-19T19:05:14.766Z,10.07
2022-08-19T19:07:42.498Z,9.02
2022-08-19T19:10:09.297Z,13.25
2022-08-19T19:12:37.655Z,13.27
2022-08-19T19:15:06.116Z,12.70
2022-08-19T19:17:32.811Z,14.90
2022-08-19T19:19:59.635Z,12.75
2022-08-19T19:22:26.229Z,14.30
2022-08-19T19:24:54.155Z,16.98
2022-08-19T19:27:21.919Z,18.58
2022-08-19T19:29:52.228Z,17.42
2022-08-19T19:32:39.170Z,19.20
2022-08-19T19:35:07.630Z,14.57
2022-08-19T19:37:34.127Z,19.30
2022-08-19T19:40:01.047Z,14.55
2022-08-19T19:42:27.664Z,16.10
2022-08-19T19:44:55.732Z,11.82
2022-08-19T19:47:24.344Z,13.88
2022-08-19T19:50:13.736Z,14.98
2022-08-19T19:52:38.711Z,15.20
2022-08-19T19:55:05.794Z,12.35
2022-08-19T19:57:32.323Z,17.05
2022-08-19T19:59:59.413Z,18.20
2022-08-19T20:02:25.992Z,13.50
2022-08-19T20:04:54.002Z,15.10
2022-08-19T20:07:40.541Z,18.15
2022-08-19T20:10:07.304Z,16.40
2022-08-19T20:12:34.728Z,16.33
2022-08-19T20:15:01.377Z,17.02
2022-08-19T20:17:27.867Z,14.60
2022-08-19T20:19:56.772Z,13.20
2022-08-19T20:22:23.320Z,17.10
2022-08-19T20:24:52.228Z,20.17
2022-08-19T20:27:19.992Z,14.07
2022-08-19T20:29:50.046Z,13.75
2022-08-19T20:34:48.943Z,14.55
2022-08-19T20:37:15.579Z,13.07
2022-08-19T20:39:42.334Z,17.38
2022-08-19T20:42:08.971Z,22.42
2022-08-19T20:44:35.648Z,16.50
2022-08-19T20:47:03.984Z,14.05
2022-08-19T20:49:31.507Z,16.67
2022-08-19T20:51:58.460Z,16.40
2022-08-19T20:54:26.043Z,17.02
2022-08-19T20:56:52.969Z,15.50
2022-08-19T20:59:20.495Z,26.15
2022-08-19T21:01:47.704Z,15.73
2022-08-19T21:04:14.572Z,15.18
2022-08-19T21:06:42.290Z,17.63
2022-08-19T21:09:12.081Z,15.55
2022-08-19T21:11:39.048Z,21.30
2022-08-19T21:14:05.830Z,15.52
2022-08-19T21:16:33.850Z,19.48
2022-08-19T21:19:00.787Z,18.20
2022-08-19T21:21:27.434Z,19.05
2022-08-19T21:23:53.941Z,17.95
2022-08-19T21:26:20.739Z,16.77
2022-08-19T21:28:47.285Z,18.45
2022-08-19T21:31:15.208Z,16.17
2022-08-19T21:33:41.836Z,18.98
2022-08-19T21:36:08.797Z,14.77
2022-08-19T21:38:35.687Z,17.88
2022-08-19T21:41:05.819Z,14.52
2022-08-19T21:43:34.504Z,17.40
2022-08-19T21:46:01.385Z,13.02
2022-08-19T21:48:28.257Z,15.13
2022-08-19T21:50:54.739Z,11.95
2022-08-19T21:53:22.846Z,12.60
2022-08-19T21:55:53.455Z,12.65
2022-08-19T21:58:30.077Z,14.13
2022-08-19T22:00:58.936Z,10.98
2022-08-19T22:03:26.375Z,10.77
2022-08-19T22:05:53.052Z,11.48
2022-08-19T22:08:19.714Z,10.23
2022-08-19T22:10:46.731Z,9.40
2022-08-19T22:13:13.437Z,9.38
2022-08-19T22:15:41.055Z,8.38
2022-08-19T22:18:07.537Z,12.83
2022-08-19T22:20:34.228Z,7.88
2022-08-19T22:23:03.836Z,9.00
2022-08-19T22:25:34.102Z,9.45
2022-08-19T22:28:02.143Z,11.50
2022-08-19T22:30:33.303Z,10.45
2022-08-19T22:33:03.828Z,10.77
2022-08-19T22:35:32.472Z,10.60
2022-08-19T22:38:00.033Z,11.63
2022-08-19T22:40:28.543Z,10.30
2022-08-19T22:45:27.303Z,11.65
2022-08-19T22:47:54.335Z,19.63
2022-08-19T22:50:20.947Z,11.23
2022-08-19T22:52:51.963Z,10.60
2022-08-19T22:55:19.160Z,11.23
2022-08-19T22:57:45.675Z,14.88
2022-08-19T23:00:13.579Z,10.80
2022-08-19T23:02:52.337Z,9.77
2022-08-19T23:05:22.209Z,10.68
2022-08-19T23:07:52.532Z,10.32
2022-08-19T23:10:26.741Z,12.25
2022-08-19T23:12:56.696Z,12.02
2022-08-19T23:15:25.892Z,10.27
2022-08-19T23:17:54.626Z,8.30
2022-08-19T23:20:23.239Z,11.82
2022-08-19T23:25:22.612Z,10.07
2022-08-19T23:28:07.853Z,12.63
2022-08-19T23:30:37.482Z,12.60
2022-08-19T23:33:13.475Z,13.48
2022-08-19T23:35:41.693Z,12.35
2022-08-19T23:38:09.730Z,11.20
2022-08-19T23:40:37.447Z,12.23
2022-08-19T23:43:08.181Z,15.35
2022-08-19T23:45:50.984Z,10.95
2022-08-19T23:48:18.236Z,11.07
2022-08-19T23:50:45.160Z,12.02
2022-08-19T23:53:13.426Z,13.05
2022-08-19T23:55:43.355Z,13.75
2022-08-19T23:58:10.930Z,10.45
